createdAt,value
2022-08-03T08:28:22.171Z,34.30
2022-08-03T08:36:56.140Z,35.10
2022-08-03T08:39:46.154Z,36.20
2022-08-03T08:42:35.122Z,36.60
2022-08-03T08:45:24.066Z,36.70
2022-08-03T08:51:04.134Z,35.90
2022-08-03T08:53:54.410Z,36.30
2022-08-03T08:56:45.379Z,36.30
2022-08-03T08:59:48.327Z,36.30
2022-08-03T09:02:38.733Z,37.60
2022-08-03T09:05:41.586Z,35.10
2022-08-03T09:08:36.370Z,38.00
2022-08-03T09:11:53.388Z,36.10
2022-08-03T09:14:45.390Z,36.60
2022-08-03T09:17:48.883Z,37.20
2022-08-03T09:20:39.545Z,36.00
2022-08-03T09:24:01.356Z,36.80
2022-08-03T09:26:53.975Z,37.70
2022-08-03T09:29:49.474Z,37.10
2022-08-03T09:32:38.523Z,36.70
2022-08-03T09:35:51.730Z,36.30
2022-08-03T09:38:37.794Z,36.80
2022-08-03T09:41:26.594Z,36.50
2022-08-03T09:44:24.129Z,36.90
2022-08-03T09:47:17.941Z,37.50
2022-08-03T09:50:09.270Z,38.10
2022-08-03T09:53:03.170Z,37.70
2022-08-03T09:56:36.494Z,38.00
2022-08-03T09:59:02.523Z,39.70
2022-08-03T10:01:51.206Z,37.80
2022-08-03T10:04:50.919Z,40.20
2022-08-03T10:07:46.876Z,37.90
2022-08-03T10:10:43.730Z,40.20
2022-08-03T10:13:32.789Z,38.50
2022-08-03T10:16:25.448Z,39.10
2022-08-03T10:19:15.177Z,40.00
2022-08-03T10:22:08.920Z,39.20
2022-08-03T10:25:02.567Z,39.40
2022-08-03T10:27:53.476Z,39.50
2022-08-03T10:30:44.991Z,39.40
2022-08-03T10:33:49.538Z,40.40
2022-08-03T10:36:42.525Z,40.10
2022-08-03T10:39:35.919Z,39.60
2022-08-03T10:42:27.121Z,39.50
2022-08-03T10:45:20.928Z,37.50
2022-08-03T10:48:10.143Z,37.70
2022-08-03T10:50:59.607Z,38.40
2022-08-03T10:53:54.374Z,38.20
2022-08-03T10:57:13.621Z,38.90
2022-08-03T11:00:06.302Z,38.80
2022-08-03T11:03:19.154Z,38.90
2022-08-03T11:06:18.939Z,40.00
2022-08-03T11:09:18.894Z,40.90
2022-08-03T11:12:30.361Z,41.90
2022-08-03T11:15:34.230Z,41.60
2022-08-03T11:18:26.836Z,40.80
2022-08-03T11:21:15.820Z,41.90
2022-08-03T11:24:06.690Z,42.30
2022-08-03T11:27:22.552Z,40.60
2022-08-03T11:30:13.817Z,40.10
2022-08-03T11:33:03.070Z,39.70
2022-08-03T11:36:05.792Z,38.40
2022-08-03T11:39:17.238Z,38.10
2022-08-03T11:42:30.019Z,38.70
2022-08-03T11:45:20.155Z,38.80
2022-08-03T11:48:16.799Z,39.60
2022-08-03T11:51:07.346Z,41.00
2022-08-03T11:53:57.279Z,41.30
2022-08-03T11:56:47.469Z,42.00
2022-08-03T11:59:39.896Z,42.80
2022-08-03T12:02:29.911Z,42.50
2022-08-03T12:05:18.987Z,41.30
2022-08-03T12:08:08.707Z,41.40
2022-08-03T12:11:00.063Z,41.80
2022-08-03T12:14:33.076Z,42.60
2022-08-03T12:16:59.853Z,41.80
2022-08-03T12:19:49.949Z,42.00
2022-08-03T12:22:40.749Z,41.70
2022-08-03T12:25:39.496Z,40.10
2022-08-03T12:28:37.194Z,39.10
2022-08-03T12:31:27.047Z,39.60
2022-08-03T12:34:16.361Z,40.20
2022-08-03T12:37:22.326Z,41.30
2022-08-03T12:40:19.316Z,41.40
2022-08-03T12:43:13.960Z,41.30
2022-08-03T12:46:10.801Z,40.90
2022-08-03T12:49:01.299Z,40.90
2022-08-03T12:52:05.482Z,40.40
2022-08-03T12:55:00.883Z,40.90
2022-08-03T12:57:49.953Z,40.60
2022-08-03T13:00:40.215Z,39.60
2022-08-03T13:03:42.659Z,39.80
2022-08-03T13:06:31.591Z,38.90
2022-08-03T13:09:20.338Z,38.90
2022-08-03T13:12:13.646Z,38.10
2022-08-03T13:15:03.249Z,37.40
2022-08-03T13:17:51.871Z,37.50
2022-08-03T13:20:40.679Z,38.00
2022-08-03T13:23:29.487Z,38.20
2022-08-03T13:26:18.139Z,38.80
2022-08-03T13:29:08.170Z,39.10
2022-08-03T13:31:56.861Z,39.60
2022-08-03T13:34:45.457Z,39.80
2022-08-03T13:37:34.132Z,39.80
2022-08-03T13:40:23.798Z,40.60
2022-08-03T13:43:18.953Z,41.30
2022-08-03T13:46:08.977Z,41.20
2022-08-03T13:48:57.611Z,41.70
2022-08-03T13:51:46.254Z,40.90
2022-08-03T13:54:34.921Z,39.60
2022-08-03T13:58:11.637Z,40.00
2022-08-03T14:00:32.158Z,40.20
2022-08-03T14:03:23.349Z,40.90
2022-08-03T14:06:11.950Z,40.20
2022-08-03T14:09:00.810Z,40.50
2022-08-03T14:12:07.959Z,40.60
2022-08-03T14:15:01.162Z,40.00
2022-08-03T14:17:50.316Z,39.10
2022-08-03T14:20:50.038Z,38.00
2022-08-03T14:23:46.231Z,38.10
2022-08-03T14:26:34.965Z,37.90
2022-08-03T14:29:23.627Z,37.70
2022-08-03T14:32:13.423Z,38.00
2022-08-03T14:35:04.462Z,38.20
2022-08-03T14:37:54.531Z,39.00
2022-08-03T14:40:43.466Z,40.00
2022-08-03T14:43:34.088Z,39.70
2022-08-03T14:46:23.207Z,38.50
2022-08-03T14:50:32.675Z,37.90
2022-08-03T15:02:03.459Z,36.70
2022-08-03T15:04:17.328Z,36.60
2022-08-03T15:07:06.035Z,36.60
2022-08-03T15:09:54.703Z,36.80
2022-08-03T15:12:44.712Z,36.70
2022-08-03T15:15:34.518Z,36.70
